sensor_id;sensor_type;location;lat;lon;timestamp;P1;durP1;ratioP1;P2;durP2;ratioP2
72939;SDS011;61094;51.154;13.570;2022-10-16T00:01:45;8.45;;;2.85;;
72939;SDS011;61094;51.154;13.570;2022-10-16T00:04:12;6.55;;;2.60;;
72939;SDS011;61094;51.154;13.570;2022-10-16T00:06:39;7.72;;;2.75;;
72939;SDS011;61094;51.154;13.570;2022-10-16T00:09:06;11.75;;;4.70;;
72939;SDS011;61094;51.154;13.570;2022-10-16T00:11:35;13.23;;;5.28;;
72939;SDS011;61094;51.154;13.570;2022-10-16T00:14:04;8.02;;;3.38;;
72939;SDS011;61094;51.154;13.570;2022-10-16T00:16:32;6.03;;;2.15;;
72939;SDS011;61094;51.154;13.570;2022-10-16T00:19:00;7.20;;;2.97;;
72939;SDS011;61094;51.154;13.570;2022-10-16T00:21:27;5.25;;;2.25;;
72939;SDS011;61094;51.154;13.570;2022-10-16T00:23:56;6.43;;;2.78;;
72939;SDS011;61094;51.154;13.570;2022-10-16T00:28:53;6.85;;;1.95;;
72939;SDS011;61094;51.154;13.570;2022-10-16T00:31:20;8.82;;;2.50;;
72939;SDS011;61094;51.154;13.570;2022-10-16T00:33:48;6.72;;;2.58;;
72939;SDS011;61094;51.154;13.570;2022-10-16T00:36:16;6.50;;;2.78;;
72939;SDS011;61094;51.154;13.570;2022-10-16T00:38:44;7.68;;;2.63;;
72939;SDS011;61094;51.154;13.570;2022-10-16T00:41:12;6.43;;;2.33;;
72939;SDS011;61094;51.154;13.570;2022-10-16T00:43:41;5.90;;;2.30;;
72939;SDS011;61094;51.154;13.570;2022-10-16T00:46:12;6.72;;;2.75;;
72939;SDS011;61094;51.154;13.570;2022-10-16T00:48:42;7.18;;;2.90;;
72939;SDS011;61094;51.154;13.570;2022-10-16T00:51:14;6.65;;;2.75;;
72939;SDS011;61094;51.154;13.570;2022-10-16T00:53:42;7.70;;;2.13;;
72939;SDS011;61094;51.154;13.570;2022-10-16T00:56:10;9.98;;;2.38;;
72939;SDS011;61094;51.154;13.570;2022-10-16T00:58:37;6.72;;;2.40;;
72939;SDS011;61094;51.154;13.570;2022-10-16T01:01:03;5.88;;;2.25;;
72939;SDS011;61094;51.154;13.570;2022-10-16T01:03:33;8.25;;;2.90;;
72939;SDS011;61094;51.154;13.570;2022-10-16T01:06:08;7.60;;;2.50;;
72939;SDS011;61094;51.154;13.570;2022-10-16T01:08:46;6.95;;;2.90;;
72939;SDS011;61094;51.154;13.570;2022-10-16T01:11:22;5.68;;;2.30;;
72939;SDS011;61094;51.154;13.570;2022-10-16T01:13:53;6.28;;;2.55;;
72939;SDS011;61094;51.154;13.570;2022-10-16T01:16:26;8.27;;;2.88;;
72939;SDS011;61094;51.154;13.570;2022-10-16T01:19:04;7.47;;;3.08;;
72939;SDS011;61094;51.154;13.570;2022-10-16T01:21:38;9.80;;;3.35;;
72939;SDS011;61094;51.154;13.570;2022-10-16T01:24:11;8.88;;;3.38;;
72939;SDS011;61094;51.154;13.570;2022-10-16T01:26:50;8.20;;;3.65;;
72939;SDS011;61094;51.154;13.570;2022-10-16T01:29:29;8.43;;;3.90;;
72939;SDS011;61094;51.154;13.570;2022-10-16T01:32:05;9.80;;;3.55;;
72939;SDS011;61094;51.154;13.570;2022-10-16T01:34:37;8.40;;;3.50;;
72939;SDS011;61094;51.154;13.570;2022-10-16T01:37:09;8.20;;;3.55;;
72939;SDS011;61094;51.154;13.570;2022-10-16T01:39:40;8.15;;;3.65;;
72939;SDS011;61094;51.154;13.570;2022-10-16T01:42:12;9.55;;;4.00;;
72939;SDS011;61094;51.154;13.570;2022-10-16T01:44:42;8.07;;;3.80;;
72939;SDS011;61094;51.154;13.570;2022-10-16T01:47:11;7.90;;;3.40;;
72939;SDS011;61094;51.154;13.570;2022-10-16T01:49:40;8.18;;;3.42;;
72939;SDS011;61094;51.154;13.570;2022-10-16T01:52:09;7.47;;;3.20;;
72939;SDS011;61094;51.154;13.570;2022-10-16T01:54:40;9.75;;;2.65;;
72939;SDS011;61094;51.154;13.570;2022-10-16T01:59:40;5.97;;;2.63;;
72939;SDS011;61094;51.154;13.570;2022-10-16T02:02:09;6.13;;;2.60;;
72939;SDS011;61094;51.154;13.570;2022-10-16T02:04:39;5.90;;;2.22;;
72939;SDS011;61094;51.154;13.570;2022-10-16T02:07:08;5.47;;;2.00;;
72939;SDS011;61094;51.154;13.570;2022-10-16T02:09:36;5.50;;;2.10;;
72939;SDS011;61094;51.154;13.570;2022-10-16T02:12:06;5.68;;;2.08;;
72939;SDS011;61094;51.154;13.570;2022-10-16T02:14:39;4.72;;;2.00;;
72939;SDS011;61094;51.154;13.570;2022-10-16T02:17:10;5.40;;;1.67;;
72939;SDS011;61094;51.154;13.570;2022-10-16T02:19:38;6.85;;;1.98;;
72939;SDS011;61094;51.154;13.570;2022-10-16T02:22:05;7.72;;;1.83;;
72939;SDS011;61094;51.154;13.570;2022-10-16T02:24:37;5.70;;;1.60;;
72939;SDS011;61094;51.154;13.570;2022-10-16T02:27:09;6.45;;;1.40;;
72939;SDS011;61094;51.154;13.570;2022-10-16T02:29:41;4.47;;;1.38;;
72939;SDS011;61094;51.154;13.570;2022-10-16T02:34:42;4.45;;;1.10;;
72939;SDS011;61094;51.154;13.570;2022-10-16T02:37:10;4.68;;;1.90;;
72939;SDS011;61094;51.154;13.570;2022-10-16T02:39:38;3.85;;;0.98;;
72939;SDS011;61094;51.154;13.570;2022-10-16T02:42:09;8.52;;;1.25;;
72939;SDS011;61094;51.154;13.570;2022-10-16T02:44:36;4.53;;;1.17;;
72939;SDS011;61094;51.154;13.570;2022-10-16T02:47:04;4.28;;;1.30;;
72939;SDS011;61094;51.154;13.570;2022-10-16T02:49:31;3.78;;;1.15;;
72939;SDS011;61094;51.154;13.570;2022-10-16T02:51:57;4.53;;;1.30;;
72939;SDS011;61094;51.154;13.570;2022-10-16T02:54:24;3.55;;;1.20;;
72939;SDS011;61094;51.154;13.570;2022-10-16T02:56:51;4.10;;;1.70;;
72939;SDS011;61094;51.154;13.570;2022-10-16T02:59:18;4.13;;;1.10;;
72939;SDS011;61094;51.154;13.570;2022-10-16T03:01:44;3.92;;;1.20;;
72939;SDS011;61094;51.154;13.570;2022-10-16T03:04:13;3.83;;;1.38;;
72939;SDS011;61094;51.154;13.570;2022-10-16T03:06:40;4.47;;;1.50;;
72939;SDS011;61094;51.154;13.570;2022-10-16T03:09:06;6.45;;;1.73;;
72939;SDS011;61094;51.154;13.570;2022-10-16T03:11:33;5.53;;;1.70;;
72939;SDS011;61094;51.154;13.570;2022-10-16T03:14:00;6.95;;;1.83;;
72939;SDS011;61094;51.154;13.570;2022-10-16T03:16:26;4.70;;;1.55;;
72939;SDS011;61094;51.154;13.570;2022-10-16T03:18:53;4.35;;;1.70;;
72939;SDS011;61094;51.154;13.570;2022-10-16T03:21:21;4.75;;;1.58;;
72939;SDS011;61094;51.154;13.570;2022-10-16T03:23:48;4.63;;;1.60;;
72939;SDS011;61094;51.154;13.570;2022-10-16T03:26:14;7.05;;;1.65;;
72939;SDS011;61094;51.154;13.570;2022-10-16T03:28:41;4.85;;;1.67;;
72939;SDS011;61094;51.154;13.570;2022-10-16T03:31:08;3.72;;;1.35;;
72939;SDS011;61094;51.154;13.570;2022-10-16T03:33:36;4.25;;;1.48;;
72939;SDS011;61094;51.154;13.570;2022-10-16T03:36:02;4.35;;;1.65;;
72939;SDS011;61094;51.154;13.570;2022-10-16T03:38:31;3.88;;;1.20;;
72939;SDS011;61094;51.154;13.570;2022-10-16T03:40:57;4.47;;;1.48;;
72939;SDS011;61094;51.154;13.570;2022-10-16T03:43:24;6.40;;;2.00;;
72939;SDS011;61094;51.154;13.570;2022-10-16T03:45:51;5.15;;;1.90;;
72939;SDS011;61094;51.154;13.570;2022-10-16T03:48:18;4.75;;;1.70;;
72939;SDS011;61094;51.154;13.570;2022-10-16T03:50:44;5.50;;;2.03;;
72939;SDS011;61094;51.154;13.570;2022-10-16T03:53:13;4.70;;;1.83;;
72939;SDS011;61094;51.154;13.570;2022-10-16T03:55:42;5.10;;;1.92;;
72939;SDS011;61094;51.154;13.570;2022-10-16T03:58:09;6.30;;;2.13;;
72939;SDS011;61094;51.154;13.570;2022-10-16T04:00:35;6.05;;;2.30;;
72939;SDS011;61094;51.154;13.570;2022-10-16T04:03:05;6.65;;;2.38;;
72939;SDS011;61094;51.154;13.570;2022-10-16T04:05:32;5.28;;;2.03;;
72939;SDS011;61094;51.154;13.570;2022-10-16T04:07:59;4.57;;;1.77;;
72939;SDS011;61094;51.154;13.570;2022-10-16T04:10:26;5.10;;;1.92;;
72939;SDS011;61094;51.154;13.570;2022-10-16T04:12:54;5.80;;;2.30;;
72939;SDS011;61094;51.154;13.570;2022-10-16T04:15:21;8.38;;;2.45;;
72939;SDS011;61094;51.154;13.570;2022-10-16T04:17:48;5.88;;;2.30;;
72939;SDS011;61094;51.154;13.570;2022-10-16T04:20:15;5.93;;;2.40;;
72939;SDS011;61094;51.154;13.570;2022-10-16T04:22:42;6.95;;;2.50;;
72939;SDS011;61094;51.154;13.570;2022-10-16T04:25:09;6.88;;;2.63;;
72939;SDS011;61094;51.154;13.570;2022-10-16T04:27:36;6.90;;;2.78;;
72939;SDS011;61094;51.154;13.570;2022-10-16T04:30:05;5.90;;;2.50;;
72939;SDS011;61094;51.154;13.570;2022-10-16T04:32:33;6.25;;;2.72;;
72939;SDS011;61094;51.154;13.570;2022-10-16T04:34:59;7.18;;;2.40;;
72939;SDS011;61094;51.154;13.570;2022-10-16T04:37:26;6.18;;;2.67;;
72939;SDS011;61094;51.154;13.570;2022-10-16T04:39:53;7.35;;;2.97;;
72939;SDS011;61094;51.154;13.570;2022-10-16T04:42:20;6.40;;;2.40;;
72939;SDS011;61094;51.154;13.570;2022-10-16T04:44:47;7.65;;;2.50;;
72939;SDS011;61094;51.154;13.570;2022-10-16T04:47:15;7.28;;;2.45;;
72939;SDS011;61094;51.154;13.570;2022-10-16T04:49:42;6.28;;;2.17;;
72939;SDS011;61094;51.154;13.570;2022-10-16T04:52:08;6.90;;;2.33;;
72939;SDS011;61094;51.154;13.570;2022-10-16T04:54:35;7.07;;;2.67;;
72939;SDS011;61094;51.154;13.570;2022-10-16T04:57:02;7.43;;;2.55;;
72939;SDS011;61094;51.154;13.570;2022-10-16T04:59:29;6.03;;;2.58;;
72939;SDS011;61094;51.154;13.570;2022-10-16T05:01:56;7.35;;;2.58;;
72939;SDS011;61094;51.154;13.570;2022-10-16T05:04:24;6.93;;;2.63;;
72939;SDS011;61094;51.154;13.570;2022-10-16T05:06:51;6.15;;;2.20;;
72939;SDS011;61094;51.154;13.570;2022-10-16T05:09:17;7.20;;;2.83;;
72939;SDS011;61094;51.154;13.570;2022-10-16T05:11:44;8.85;;;3.00;;
72939;SDS011;61094;51.154;13.570;2022-10-16T05:14:11;10.27;;;2.80;;
72939;SDS011;61094;51.154;13.570;2022-10-16T05:16:38;7.20;;;3.13;;
72939;SDS011;61094;51.154;13.570;2022-10-16T05:19:04;7.32;;;2.80;;
72939;SDS011;61094;51.154;13.570;2022-10-16T05:21:32;8.43;;;3.15;;
72939;SDS011;61094;51.154;13.570;2022-10-16T05:23:59;9.35;;;3.15;;
72939;SDS011;61094;51.154;13.570;2022-10-16T05:26:26;9.85;;;2.90;;
72939;SDS011;61094;51.154;13.570;2022-10-16T05:28:52;9.13;;;3.20;;
72939;SDS011;61094;51.154;13.570;2022-10-16T05:31:19;7.20;;;3.08;;
72939;SDS011;61094;51.154;13.570;2022-10-16T05:33:46;7.72;;;3.15;;
72939;SDS011;61094;51.154;13.570;2022-10-16T05:36:13;6.18;;;2.63;;
72939;SDS011;61094;51.154;13.570;2022-10-16T05:38:41;6.97;;;2.75;;
72939;SDS011;61094;51.154;13.570;2022-10-16T05:41:10;8.75;;;3.85;;
72939;SDS011;61094;51.154;13.570;2022-10-16T05:43:36;8.75;;;3.15;;
72939;SDS011;61094;51.154;13.570;2022-10-16T05:46:04;8.20;;;3.15;;
72939;SDS011;61094;51.154;13.570;2022-10-16T05:48:31;8.85;;;3.40;;
72939;SDS011;61094;51.154;13.570;2022-10-16T05:50:58;7.68;;;3.35;;
72939;SDS011;61094;51.154;13.570;2022-10-16T05:53:26;11.93;;;3.35;;
72939;SDS011;61094;51.154;13.570;2022-10-16T05:55:55;6.68;;;2.90;;
72939;SDS011;61094;51.154;13.570;2022-10-16T05:58:22;8.32;;;2.85;;
72939;SDS011;61094;51.154;13.570;2022-10-16T06:00:53;8.57;;;2.90;;
72939;SDS011;61094;51.154;13.570;2022-10-16T06:03:21;8.23;;;3.25;;
72939;SDS011;61094;51.154;13.570;2022-10-16T06:05:48;7.15;;;2.92;;
72939;SDS011;61094;51.154;13.570;2022-10-16T06:08:14;9.32;;;3.03;;
72939;SDS011;61094;51.154;13.570;2022-10-16T06:10:41;7.65;;;3.03;;
72939;SDS011;61094;51.154;13.570;2022-10-16T06:13:10;7.72;;;3.25;;
72939;SDS011;61094;51.154;13.570;2022-10-16T06:15:37;10.32;;;3.20;;
72939;SDS011;61094;51.154;13.570;2022-10-16T06:18:04;10.27;;;4.50;;
72939;SDS011;61094;51.154;13.570;2022-10-16T06:20:31;19.85;;;9.80;;
72939;SDS011;61094;51.154;13.570;2022-10-16T06:22:57;15.88;;;8.50;;
72939;SDS011;61094;51.154;13.570;2022-10-16T06:25:24;14.40;;;7.70;;
72939;SDS011;61094;51.154;13.570;2022-10-16T06:27:51;16.25;;;8.57;;
72939;SDS011;61094;51.154;13.570;2022-10-16T06:30:19;8.82;;;4.00;;
72939;SDS011;61094;51.154;13.570;2022-10-16T06:32:45;10.15;;;3.72;;
72939;SDS011;61094;51.154;13.570;2022-10-16T06:35:12;8.15;;;3.13;;
72939;SDS011;61094;51.154;13.570;2022-10-16T06:37:39;7.53;;;3.00;;
72939;SDS011;61094;51.154;13.570;2022-10-16T06:40:06;6.57;;;2.67;;
72939;SDS011;61094;51.154;13.570;2022-10-16T06:42:33;6.72;;;2.88;;
72939;SDS011;61094;51.154;13.570;2022-10-16T06:45:00;7.72;;;3.35;;
72939;SDS011;61094;51.154;13.570;2022-10-16T06:47:28;9.32;;;3.22;;
72939;SDS011;61094;51.154;13.570;2022-10-16T06:49:55;7.25;;;2.78;;
72939;SDS011;61094;51.154;13.570;2022-10-16T06:52:22;6.82;;;2.90;;
72939;SDS011;61094;51.154;13.570;2022-10-16T06:54:49;7.15;;;2.67;;
72939;SDS011;61094;51.154;13.570;2022-10-16T06:57:16;6.28;;;2.75;;
72939;SDS011;61094;51.154;13.570;2022-10-16T06:59:42;7.28;;;2.70;;
72939;SDS011;61094;51.154;13.570;2022-10-16T07:02:09;5.88;;;2.28;;
72939;SDS011;61094;51.154;13.570;2022-10-16T07:04:37;6.00;;;2.20;;
72939;SDS011;61094;51.154;13.570;2022-10-16T07:07:04;6.53;;;2.40;;
72939;SDS011;61094;51.154;13.570;2022-10-16T07:09:31;11.60;;;5.07;;
72939;SDS011;61094;51.154;13.570;2022-10-16T07:11:57;10.60;;;3.10;;
72939;SDS011;61094;51.154;13.570;2022-10-16T07:14:24;6.78;;;2.65;;
72939;SDS011;61094;51.154;13.570;2022-10-16T07:16:51;7.30;;;2.88;;
72939;SDS011;61094;51.154;13.570;2022-10-16T07:19:17;12.80;;;4.80;;
72939;SDS011;61094;51.154;13.570;2022-10-16T07:21:45;9.30;;;3.75;;
72939;SDS011;61094;51.154;13.570;2022-10-16T07:24:13;8.77;;;3.58;;
72939;SDS011;61094;51.154;13.570;2022-10-16T07:26:41;12.23;;;4.00;;
72939;SDS011;61094;51.154;13.570;2022-10-16T07:29:11;8.60;;;3.85;;
72939;SDS011;61094;51.154;13.570;2022-10-16T07:31:52;9.75;;;3.85;;
72939;SDS011;61094;51.154;13.570;2022-10-16T07:34:19;7.32;;;3.22;;
72939;SDS011;61094;51.154;13.570;2022-10-16T07:36:48;11.02;;;4.15;;
72939;SDS011;61094;51.154;13.570;2022-10-16T07:39:16;8.43;;;3.53;;
72939;SDS011;61094;51.154;13.570;2022-10-16T07:41:43;7.50;;;3.05;;
72939;SDS011;61094;51.154;13.570;2022-10-16T07:44:10;7.07;;;3.22;;
72939;SDS011;61094;51.154;13.570;2022-10-16T07:46:37;9.10;;;3.05;;
72939;SDS011;61094;51.154;13.570;2022-10-16T07:49:03;11.43;;;4.88;;
72939;SDS011;61094;51.154;13.570;2022-10-16T07:51:30;19.27;;;7.80;;
72939;SDS011;61094;51.154;13.570;2022-10-16T07:53:58;16.73;;;7.22;;
72939;SDS011;61094;51.154;13.570;2022-10-16T07:56:25;11.32;;;5.00;;
72939;SDS011;61094;51.154;13.570;2022-10-16T07:58:52;8.20;;;3.10;;
72939;SDS011;61094;51.154;13.570;2022-10-16T08:01:19;6.15;;;2.33;;
72939;SDS011;61094;51.154;13.570;2022-10-16T08:03:46;6.10;;;2.92;;
72939;SDS011;61094;51.154;13.570;2022-10-16T08:06:14;12.85;;;5.63;;
72939;SDS011;61094;51.154;13.570;2022-10-16T08:08:42;5.30;;;2.30;;
72939;SDS011;61094;51.154;13.570;2022-10-16T08:11:10;5.68;;;2.03;;
72939;SDS011;61094;51.154;13.570;2022-10-16T08:13:37;5.97;;;2.15;;
72939;SDS011;61094;51.154;13.570;2022-10-16T08:16:04;5.20;;;2.30;;
72939;SDS011;61094;51.154;13.570;2022-10-16T08:18:33;5.00;;;1.98;;
72939;SDS011;61094;51.154;13.570;2022-10-16T08:21:00;6.05;;;1.95;;
72939;SDS011;61094;51.154;13.570;2022-10-16T08:23:27;5.03;;;2.05;;
72939;SDS011;61094;51.154;13.570;2022-10-16T08:31:52;3.58;;;1.40;;
72939;SDS011;61094;51.154;13.570;2022-10-16T08:34:19;5.57;;;1.42;;
72939;SDS011;61094;51.154;13.570;2022-10-16T08:36:46;5.10;;;1.48;;
72939;SDS011;61094;51.154;13.570;2022-10-16T08:39:13;4.28;;;1.42;;
72939;SDS011;61094;51.154;13.570;2022-10-16T08:41:48;3.35;;;1.35;;
72939;SDS011;61094;51.154;13.570;2022-10-16T08:45:06;2.85;;;1.10;;
72939;SDS011;61094;51.154;13.570;2022-10-16T08:47:44;3.05;;;1.10;;
72939;SDS011;61094;51.154;13.570;2022-10-16T08:50:17;4.20;;;1.55;;
72939;SDS011;61094;51.154;13.570;2022-10-16T08:52:48;3.63;;;1.40;;
72939;SDS011;61094;51.154;13.570;2022-10-16T08:55:19;4.47;;;1.55;;
72939;SDS011;61094;51.154;13.570;2022-10-16T08:57:55;3.90;;;1.40;;
72939;SDS011;61094;51.154;13.570;2022-10-16T09:00:23;5.85;;;1.55;;
72939;SDS011;61094;51.154;13.570;2022-10-16T09:02:53;3.65;;;1.50;;
72939;SDS011;61094;51.154;13.570;2022-10-16T09:05:32;4.68;;;1.50;;
72939;SDS011;61094;51.154;13.570;2022-10-16T09:08:16;4.25;;;1.50;;
72939;SDS011;61094;51.154;13.570;2022-10-16T09:10:50;3.70;;;1.55;;
72939;SDS011;61094;51.154;13.570;2022-10-16T09:13:23;5.35;;;2.13;;
72939;SDS011;61094;51.154;13.570;2022-10-16T09:15:55;6.72;;;2.15;;
72939;SDS011;61094;51.154;13.570;2022-10-16T09:18:34;4.72;;;1.40;;
72939;SDS011;61094;51.154;13.570;2022-10-16T09:21:09;3.83;;;1.42;;
72939;SDS011;61094;51.154;13.570;2022-10-16T09:26:36;3.65;;;1.10;;
72939;SDS011;61094;51.154;13.570;2022-10-16T09:29:02;2.42;;;0.68;;
72939;SDS011;61094;51.154;13.570;2022-10-16T09:31:30;1.15;;;0.40;;
72939;SDS011;61094;51.154;13.570;2022-10-16T09:36:44;3.67;;;0.60;;
72939;SDS011;61094;51.154;13.570;2022-10-16T09:39:12;1.50;;;0.63;;
72939;SDS011;61094;51.154;13.570;2022-10-16T09:41:39;2.08;;;0.40;;
72939;SDS011;61094;51.154;13.570;2022-10-16T09:44:15;2.10;;;0.40;;
72939;SDS011;61094;51.154;13.570;2022-10-16T09:46:48;1.70;;;0.35;;
72939;SDS011;61094;51.154;13.570;2022-10-16T09:49:20;2.97;;;0.60;;
72939;SDS011;61094;51.154;13.570;2022-10-16T09:51:48;1.48;;;0.40;;
72939;SDS011;61094;51.154;13.570;2022-10-16T09:54:16;8.82;;;0.60;;
72939;SDS011;61094;51.154;13.570;2022-10-16T09:56:43;0.73;;;0.28;;
72939;SDS011;61094;51.154;13.570;2022-10-16T09:59:15;0.98;;;0.40;;
72939;SDS011;61094;51.154;13.570;2022-10-16T10:08:28;1.92;;;0.50;;
72939;SDS011;61094;51.154;13.570;2022-10-16T10:10:55;1.85;;;0.50;;
72939;SDS011;61094;51.154;13.570;2022-10-16T10:13:22;2.35;;;0.60;;
72939;SDS011;61094;51.154;13.570;2022-10-16T10:15:51;1.25;;;0.35;;
72939;SDS011;61094;51.154;13.570;2022-10-16T10:18:20;1.45;;;0.63;;
72939;SDS011;61094;51.154;13.570;2022-10-16T10:20:56;1.42;;;0.47;;
72939;SDS011;61094;51.154;13.570;2022-10-16T10:23:25;2.33;;;0.57;;
72939;SDS011;61094;51.154;13.570;2022-10-16T10:25:55;1.35;;;0.47;;
72939;SDS011;61094;51.154;13.570;2022-10-16T10:28:30;3.13;;;0.50;;
72939;SDS011;61094;51.154;13.570;2022-10-16T10:31:14;1.65;;;0.60;;
72939;SDS011;61094;51.154;13.570;2022-10-16T10:33:46;1.88;;;0.60;;
72939;SDS011;61094;51.154;13.570;2022-10-16T10:36:22;1.95;;;0.50;;
72939;SDS011;61094;51.154;13.570;2022-10-16T10:38:54;0.60;;;0.30;;
72939;SDS011;61094;51.154;13.570;2022-10-16T10:44:40;2.05;;;0.60;;
72939;SDS011;61094;51.154;13.570;2022-10-16T10:47:23;0.90;;;0.30;;
72939;SDS011;61094;51.154;13.570;2022-10-16T10:52:41;1.65;;;0.40;;
72939;SDS011;61094;51.154;13.570;2022-10-16T10:55:20;1.25;;;0.40;;
72939;SDS011;61094;51.154;13.570;2022-10-16T10:58:02;1.38;;;0.43;;
72939;SDS011;61094;51.154;13.570;2022-10-16T11:00:44;1.50;;;0.35;;
72939;SDS011;61094;51.154;13.570;2022-10-16T11:03:25;4.72;;;0.40;;
72939;SDS011;61094;51.154;13.570;2022-10-16T11:06:02;1.30;;;0.55;;
72939;SDS011;61094;51.154;13.570;2022-10-16T11:08:33;1.02;;;0.30;;
72939;SDS011;61094;51.154;13.570;2022-10-16T11:11:06;0.95;;;0.45;;
72939;SDS011;61094;51.154;13.570;2022-10-16T11:13:38;1.23;;;0.30;;
72939;SDS011;61094;51.154;13.570;2022-10-16T11:16:13;1.30;;;0.50;;
72939;SDS011;61094;51.154;13.570;2022-10-16T11:18:46;2.35;;;0.40;;
72939;SDS011;61094;51.154;13.570;2022-10-16T11:21:18;1.40;;;0.40;;
72939;SDS011;61094;51.154;13.570;2022-10-16T11:23:49;1.27;;;0.43;;
72939;SDS011;61094;51.154;13.570;2022-10-16T11:26:23;1.17;;;0.40;;
72939;SDS011;61094;51.154;13.570;2022-10-16T11:28:53;1.83;;;0.40;;
72939;SDS011;61094;51.154;13.570;2022-10-16T11:31:24;1.00;;;0.40;;
72939;SDS011;61094;51.154;13.570;2022-10-16T11:33:57;2.22;;;0.52;;
72939;SDS011;61094;51.154;13.570;2022-10-16T11:36:31;1.83;;;0.43;;
72939;SDS011;61094;51.154;13.570;2022-10-16T11:39:02;0.93;;;0.40;;
72939;SDS011;61094;51.154;13.570;2022-10-16T11:41:37;1.65;;;0.57;;
72939;SDS011;61094;51.154;13.570;2022-10-16T11:44:14;4.82;;;1.50;;
72939;SDS011;61094;51.154;13.570;2022-10-16T11:46:50;2.80;;;0.70;;
72939;SDS011;61094;51.154;13.570;2022-10-16T11:49:25;1.13;;;0.38;;
72939;SDS011;61094;51.154;13.570;2022-10-16T11:51:56;1.00;;;0.43;;
72939;SDS011;61094;51.154;13.570;2022-10-16T11:54:28;2.30;;;0.38;;
72939;SDS011;61094;51.154;13.570;2022-10-16T11:57:05;0.90;;;0.30;;
72939;SDS011;61094;51.154;13.570;2022-10-16T11:59:38;0.95;;;0.43;;
72939;SDS011;61094;51.154;13.570;2022-10-16T12:02:20;3.72;;;1.05;;
72939;SDS011;61094;51.154;13.570;2022-10-16T12:05:11;0.60;;;0.30;;
72939;SDS011;61094;51.154;13.570;2022-10-16T12:07:47;1.25;;;0.52;;
72939;SDS011;61094;51.154;13.570;2022-10-16T12:10:21;1.27;;;0.63;;
72939;SDS011;61094;51.154;13.570;2022-10-16T12:12:49;1.30;;;0.40;;
72939;SDS011;61094;51.154;13.570;2022-10-16T12:15:21;1.63;;;0.40;;
72939;SDS011;61094;51.154;13.570;2022-10-16T12:17:51;0.30;;;0.28;;
72939;SDS011;61094;51.154;13.570;2022-10-16T12:20:20;0.73;;;0.22;;
72939;SDS011;61094;51.154;13.570;2022-10-16T12:22:52;3.00;;;0.45;;
72939;SDS011;61094;51.154;13.570;2022-10-16T12:25:21;2.15;;;0.40;;
72939;SDS011;61094;51.154;13.570;2022-10-16T12:27:53;1.88;;;0.50;;
72939;SDS011;61094;51.154;13.570;2022-10-16T12:30:22;1.40;;;0.45;;
72939;SDS011;61094;51.154;13.570;2022-10-16T12:32:56;1.08;;;0.40;;
72939;SDS011;61094;51.154;13.570;2022-10-16T12:35:26;0.82;;;0.22;;
72939;SDS011;61094;51.154;13.570;2022-10-16T12:38:03;1.20;;;0.40;;
72939;SDS011;61094;51.154;13.570;2022-10-16T12:40:33;2.35;;;0.40;;
72939;SDS011;61094;51.154;13.570;2022-10-16T12:46:02;1.08;;;0.40;;
72939;SDS011;61094;51.154;13.570;2022-10-16T12:48:33;1.40;;;0.50;;
72939;SDS011;61094;51.154;13.570;2022-10-16T12:51:09;1.60;;;0.47;;
72939;SDS011;61094;51.154;13.570;2022-10-16T12:53:36;0.93;;;0.47;;
72939;SDS011;61094;51.154;13.570;2022-10-16T12:56:04;0.73;;;0.30;;
72939;SDS011;61094;51.154;13.570;2022-10-16T12:58:44;1.20;;;0.47;;
72939;SDS011;61094;51.154;13.570;2022-10-16T13:01:24;2.85;;;0.52;;
72939;SDS011;61094;51.154;13.570;2022-10-16T13:04:09;1.15;;;0.30;;
72939;SDS011;61094;51.154;13.570;2022-10-16T13:07:00;1.83;;;0.50;;
72939;SDS011;61094;51.154;13.570;2022-10-16T13:09:42;3.60;;;1.05;;
72939;SDS011;61094;51.154;13.570;2022-10-16T13:12:26;1.55;;;0.40;;
72939;SDS011;61094;51.154;13.570;2022-10-16T13:15:25;2.03;;;0.50;;
72939;SDS011;61094;51.154;13.570;2022-10-16T13:18:04;1.27;;;0.30;;
72939;SDS011;61094;51.154;13.570;2022-10-16T13:20:43;1.83;;;0.60;;
72939;SDS011;61094;51.154;13.570;2022-10-16T13:23:21;1.35;;;0.40;;
72939;SDS011;61094;51.154;13.570;2022-10-16T13:25:58;1.05;;;0.40;;
72939;SDS011;61094;51.154;13.570;2022-10-16T13:28:35;3.70;;;0.50;;
72939;SDS011;61094;51.154;13.570;2022-10-16T13:31:04;1.13;;;0.40;;
72939;SDS011;61094;51.154;13.570;2022-10-16T13:33:41;1.10;;;0.55;;
72939;SDS011;61094;51.154;13.570;2022-10-16T13:36:18;2.03;;;0.50;;
72939;SDS011;61094;51.154;13.570;2022-10-16T13:38:47;2.10;;;0.85;;
72939;SDS011;61094;51.154;13.570;2022-10-16T13:41:14;2.53;;;0.82;;
72939;SDS011;61094;51.154;13.570;2022-10-16T13:43:43;0.65;;;0.40;;
72939;SDS011;61094;51.154;13.570;2022-10-16T13:46:13;2.03;;;0.70;;
72939;SDS011;61094;51.154;13.570;2022-10-16T13:51:11;1.90;;;0.60;;
72939;SDS011;61094;51.154;13.570;2022-10-16T13:53:41;1.75;;;0.63;;
72939;SDS011;61094;51.154;13.570;2022-10-16T13:56:10;0.88;;;0.38;;
72939;SDS011;61094;51.154;13.570;2022-10-16T13:58:39;3.08;;;0.50;;
72939;SDS011;61094;51.154;13.570;2022-10-16T14:01:14;3.72;;;0.80;;
72939;SDS011;61094;51.154;13.570;2022-10-16T14:03:43;2.28;;;0.65;;
72939;SDS011;61094;51.154;13.570;2022-10-16T14:06:11;2.08;;;0.80;;
72939;SDS011;61094;51.154;13.570;2022-10-16T14:08:43;2.67;;;0.47;;
72939;SDS011;61094;51.154;13.570;2022-10-16T14:11:19;1.13;;;0.50;;
72939;SDS011;61094;51.154;13.570;2022-10-16T14:13:48;1.70;;;0.50;;
72939;SDS011;61094;51.154;13.570;2022-10-16T14:16:17;1.55;;;0.70;;
72939;SDS011;61094;51.154;13.570;2022-10-16T14:18:46;2.53;;;0.60;;
72939;SDS011;61094;51.154;13.570;2022-10-16T14:21:18;1.92;;;0.70;;
72939;SDS011;61094;51.154;13.570;2022-10-16T14:23:47;2.88;;;0.90;;
72939;SDS011;61094;51.154;13.570;2022-10-16T14:26:15;4.00;;;1.08;;
72939;SDS011;61094;51.154;13.570;2022-10-16T14:28:44;4.30;;;0.70;;
72939;SDS011;61094;51.154;13.570;2022-10-16T14:31:23;2.67;;;0.70;;
72939;SDS011;61094;51.154;13.570;2022-10-16T14:33:55;2.17;;;0.80;;
72939;SDS011;61094;51.154;13.570;2022-10-16T14:36:22;4.38;;;0.60;;
72939;SDS011;61094;51.154;13.570;2022-10-16T14:38:53;1.20;;;0.47;;
72939;SDS011;61094;51.154;13.570;2022-10-16T14:41:25;1.13;;;0.40;;
72939;SDS011;61094;51.154;13.570;2022-10-16T14:43:53;1.23;;;0.50;;
72939;SDS011;61094;51.154;13.570;2022-10-16T14:46:21;1.85;;;0.52;;
72939;SDS011;61094;51.154;13.570;2022-10-16T14:48:54;1.75;;;0.60;;
72939;SDS011;61094;51.154;13.570;2022-10-16T14:51:27;2.30;;;0.50;;
72939;SDS011;61094;51.154;13.570;2022-10-16T14:53:55;10.07;;;3.85;;
72939;SDS011;61094;51.154;13.570;2022-10-16T14:56:22;17.15;;;8.30;;
72939;SDS011;61094;51.154;13.570;2022-10-16T15:01:18;1.40;;;0.57;;
72939;SDS011;61094;51.154;13.570;2022-10-16T15:03:45;3.45;;;0.45;;
72939;SDS011;61094;51.154;13.570;2022-10-16T15:06:37;3.40;;;0.47;;
72939;SDS011;61094;51.154;13.570;2022-10-16T15:11:47;11.85;;;5.20;;
72939;SDS011;61094;51.154;13.570;2022-10-16T15:14:14;1.80;;;0.50;;
72939;SDS011;61094;51.154;13.570;2022-10-16T15:16:41;1.25;;;0.30;;
72939;SDS011;61094;51.154;13.570;2022-10-16T15:19:10;2.28;;;0.50;;
72939;SDS011;61094;51.154;13.570;2022-10-16T15:21:37;1.27;;;0.43;;
72939;SDS011;61094;51.154;13.570;2022-10-16T15:24:05;1.02;;;0.40;;
72939;SDS011;61094;51.154;13.570;2022-10-16T15:26:39;2.40;;;0.55;;
72939;SDS011;61094;51.154;13.570;2022-10-16T15:29:16;1.02;;;0.50;;
72939;SDS011;61094;51.154;13.570;2022-10-16T15:31:44;2.83;;;0.55;;
72939;SDS011;61094;51.154;13.570;2022-10-16T15:34:12;3.40;;;0.82;;